KCNW

Tstc Waco Airport

Waco, Texas, USA
METAR KCNW 232150Z 11004KT 1 1/4SM BR OVC003 13/13 A3006
Observed Flight Rules
Feb-23 @ 21:50 UTC (47 minutes ago) Instrument Flight Rules
Wind Visibility Clouds Conditions
110° at 4 knots 1 1/4 miles
  • Overcast at 300' AGL
  • Mist
Temperatures Readings
Current 13°C / 55°F
Dewpoint 13°C / 55°F
Humidity 100%
Altimeter 30.06" Hg
Pressure 1018 hPa
Elevation 156
METAR KCNW 232150Z 11004KT 1 1/4SM BR OVC003 13/13 A3006
Observed Flight Rules
Feb-23 @ 21:50 UTC
(47 minutes ago)
LIFR
Wind Visibility
110° at 4 knots 1 1/4 miles
Clouds
  • Overcast at 300' AGL
Conditions
  • Mist
Temperature Dewpoint
13°C / 55°F 13°C / 55°F
Humidity Altimeter Pressure
100% 30.06" Hg 1018 hPa